Time;durP1;ratioP1;P1;durP2;ratioP2;P2;SDS_P1;SDS_P2;PMS_P1;PMS_P2;Temp;Humidity;BMP_temperature;BMP_pressure;BME280_temperature;BME280_humidity;BME280_pressure;Samples;Min_cycle;Max_cycle;Signal;HPM_P1;HPM_P2
2022/08/20 00:00:26;;;;;;;9.45;2.92;;;;;;;;;;5074554;28;20029;-67
2022/08/20 00:02:54;;;;;;;9.48;2.83;;;;;;;;;;5074260;28;20035;-69
2022/08/20 00:05:22;;;;;;;12.82;3.10;;;;;;;;;;5074223;28;20393;-68
2022/08/20 00:07:48;;;;;;;11.05;3.13;;;;;;;;;;5074372;28;20024;-69
2022/08/20 00:10:15;;;;;;;9.45;3.00;;;;;;;;;;5074132;28;20515;-68
2022/08/20 00:12:45;;;;;;;10.50;2.65;;;;;;;;;;5074418;28;20013;-67
2022/08/20 00:15:12;;;;;;;9.38;2.70;;;;;;;;;;5074348;28;20036;-69
2022/08/20 00:17:39;;;;;;;9.32;2.60;;;;;;;;;;5073960;28;20025;-68
2022/08/20 00:20:08;;;;;;;6.97;2.83;;;;;;;;;;5074229;28;20036;-67
2022/08/20 00:22:34;;;;;;;10.95;3.03;;;;;;;;;;5074532;28;20025;-68
2022/08/20 00:25:00;;;;;;;9.18;2.80;;;;;;;;;;5073884;28;20033;-67
2022/08/20 00:27:26;;;;;;;4.97;2.40;;;;;;;;;;5073770;28;20025;-67
2022/08/20 00:29:52;;;;;;;10.00;3.03;;;;;;;;;;5074040;28;20078;-69
2022/08/20 00:32:18;;;;;;;9.52;2.80;;;;;;;;;;5074025;28;20051;-69
2022/08/20 00:34:44;;;;;;;7.35;2.70;;;;;;;;;;5073681;28;20020;-68
2022/08/20 00:37:10;;;;;;;12.27;2.80;;;;;;;;;;5072778;28;20039;-68
2022/08/20 00:39:36;;;;;;;9.18;2.97;;;;;;;;;;5073644;28;20035;-68
2022/08/20 00:42:03;;;;;;;6.43;2.70;;;;;;;;;;5073618;28;20063;-69
2022/08/20 00:44:29;;;;;;;6.38;2.63;;;;;;;;;;5073570;28;20024;-69
2022/08/20 00:46:55;;;;;;;8.07;2.78;;;;;;;;;;5073739;28;20064;-67
2022/08/20 00:49:24;;;;;;;10.40;2.63;;;;;;;;;;5074074;28;20027;-67
2022/08/20 00:51:52;;;;;;;9.27;2.50;;;;;;;;;;5073478;28;20055;-69
2022/08/20 00:54:18;;;;;;;10.85;3.50;;;;;;;;;;5071108;28;20579;-68
2022/08/20 00:56:46;;;;;;;14.05;3.05;;;;;;;;;;5053765;28;20037;-68
2022/08/20 00:59:15;;;;;;;7.63;2.30;;;;;;;;;;5053361;28;20393;-67
2022/08/20 01:01:42;;;;;;;7.93;2.50;;;;;;;;;;5053247;28;20037;-68
2022/08/20 01:04:09;;;;;;;12.60;3.00;;;;;;;;;;5053266;28;20025;-69
2022/08/20 01:06:36;;;;;;;11.45;3.90;;;;;;;;;;5053238;28;20033;-69
2022/08/20 01:09:02;;;;;;;11.80;3.13;;;;;;;;;;5053767;28;20025;-68
2022/08/20 01:11:35;;;;;;;9.23;2.75;;;;;;;;;;5053212;28;20029;-69
2022/08/20 01:14:14;;;;;;;10.88;2.67;;;;;;;;;;5053816;28;20074;-68
2022/08/20 01:16:41;;;;;;;6.80;2.37;;;;;;;;;;5053478;28;20083;-69
2022/08/20 01:19:08;;;;;;;9.45;2.67;;;;;;;;;;5053086;28;20259;-67
2022/08/20 01:21:34;;;;;;;10.10;3.13;;;;;;;;;;5053092;28;20441;-67
2022/08/20 01:24:11;;;;;;;11.30;3.40;;;;;;;;;;5053296;28;20082;-68
2022/08/20 01:26:40;;;;;;;7.80;2.58;;;;;;;;;;5053547;28;20036;-67
2022/08/20 01:29:17;;;;;;;15.35;2.72;;;;;;;;;;5053607;28;20099;-68
2022/08/20 01:31:43;;;;;;;8.45;2.58;;;;;;;;;;5034851;28;20450;-68
2022/08/20 01:34:11;;;;;;;8.43;2.47;;;;;;;;;;5053281;28;20021;-69
2022/08/20 01:36:42;;;;;;;6.20;2.40;;;;;;;;;;5052977;28;20048;-69
2022/08/20 01:39:09;;;;;;;9.85;2.95;;;;;;;;;;5053488;28;20082;-69
2022/08/20 01:41:55;;;;;;;8.18;2.58;;;;;;;;;;5052927;28;20031;-69
2022/08/20 01:44:22;;;;;;;10.82;2.58;;;;;;;;;;5052935;28;20029;-68
2022/08/20 01:46:49;;;;;;;9.85;3.03;;;;;;;;;;5034953;28;20389;-68
2022/08/20 01:49:21;;;;;;;9.88;2.90;;;;;;;;;;5056622;28;20078;-68
2022/08/20 01:51:49;;;;;;;8.10;2.47;;;;;;;;;;5038881;28;20029;-69
2022/08/20 01:54:16;;;;;;;10.30;2.42;;;;;;;;;;5057035;28;20027;-68
2022/08/20 01:57:00;;;;;;;10.95;2.60;;;;;;;;;;5057280;28;20033;-69
2022/08/20 01:59:26;;;;;;;9.05;2.58;;;;;;;;;;5056639;28;20029;-68
2022/08/20 02:01:52;;;;;;;8.00;3.17;;;;;;;;;;5056530;28;20393;-67
2022/08/20 02:04:18;;;;;;;11.73;2.95;;;;;;;;;;5056772;28;20021;-69
2022/08/20 02:06:49;;;;;;;10.05;2.58;;;;;;;;;;5056501;28;20033;-68
2022/08/20 02:09:15;;;;;;;11.02;2.58;;;;;;;;;;5056453;28;20272;-68
2022/08/20 02:11:42;;;;;;;6.45;2.15;;;;;;;;;;5056966;28;20029;-67
2022/08/20 02:14:10;;;;;;;9.15;2.47;;;;;;;;;;5056380;28;20017;-69
2022/08/20 02:16:37;;;;;;;8.73;2.85;;;;;;;;;;5056897;28;20033;-69
2022/08/20 02:19:08;;;;;;;9.30;2.60;;;;;;;;;;5056248;28;20397;-67
2022/08/20 02:21:36;;;;;;;8.90;2.35;;;;;;;;;;5056285;28;20032;-67
2022/08/20 02:24:02;;;;;;;9.00;2.60;;;;;;;;;;5056226;28;20035;-67
2022/08/20 02:26:28;;;;;;;8.30;2.22;;;;;;;;;;5056576;28;20036;-68
2022/08/20 02:28:54;;;;;;;9.40;2.67;;;;;;;;;;5056097;28;20049;-68
2022/08/20 02:31:21;;;;;;;9.73;2.60;;;;;;;;;;5056061;28;20025;-68
2022/08/20 02:33:48;;;;;;;7.53;2.38;;;;;;;;;;5056016;28;20017;-67
2022/08/20 02:36:16;;;;;;;6.45;2.50;;;;;;;;;;5056298;28;20460;-69
2022/08/20 02:38:42;;;;;;;6.72;2.60;;;;;;;;;;5038076;28;20035;-69
2022/08/20 02:41:09;;;;;;;9.65;3.00;;;;;;;;;;5056456;28;20040;-68
2022/08/20 02:43:36;;;;;;;6.72;2.10;;;;;;;;;;5055911;28;20083;-69
2022/08/20 02:46:02;;;;;;;5.55;2.25;;;;;;;;;;5056053;28;20032;-67
2022/08/20 02:48:30;;;;;;;10.93;2.33;;;;;;;;;;5056293;28;20028;-68
2022/08/20 02:51:00;;;;;;;8.20;2.22;;;;;;;;;;5056236;28;20036;-67
2022/08/20 02:53:27;;;;;;;12.82;3.53;;;;;;;;;;5056275;28;20064;-68
2022/08/20 02:55:53;;;;;;;11.63;3.17;;;;;;;;;;5055938;28;20087;-69
2022/08/20 02:58:20;;;;;;;10.35;4.32;;;;;;;;;;5055575;28;20389;-69
2022/08/20 03:00:47;;;;;;;13.48;4.15;;;;;;;;;;5054372;28;20052;-68
2022/08/20 03:03:14;;;;;;;9.20;3.17;;;;;;;;;;5055767;28;20052;-69
2022/08/20 03:05:42;;;;;;;12.40;3.10;;;;;;;;;;5055465;28;20444;-68
2022/08/20 03:08:09;;;;;;;7.95;3.05;;;;;;;;;;5055342;28;20560;-67
2022/08/20 03:10:36;;;;;;;10.45;3.20;;;;;;;;;;5055346;28;20109;-68
2022/08/20 03:13:03;;;;;;;8.18;2.70;;;;;;;;;;5055319;28;20099;-67
2022/08/20 03:15:30;;;;;;;11.20;3.00;;;;;;;;;;5037394;28;20452;-67
2022/08/20 03:17:56;;;;;;;11.13;3.60;;;;;;;;;;5055462;28;20029;-68
2022/08/20 03:20:22;;;;;;;11.00;3.90;;;;;;;;;;5055673;28;20033;-67
2022/08/20 03:22:48;;;;;;;13.88;4.22;;;;;;;;;;5055094;28;20047;-68
2022/08/20 03:25:15;;;;;;;10.32;3.92;;;;;;;;;;5055376;28;20025;-68
2022/08/20 03:27:41;;;;;;;11.45;4.38;;;;;;;;;;5055189;28;20021;-68
2022/08/20 03:30:09;;;;;;;9.68;5.15;;;;;;;;;;5054990;28;20531;-68
2022/08/20 03:32:36;;;;;;;7.90;3.50;;;;;;;;;;5055426;28;20029;-68
2022/08/20 03:35:02;;;;;;;11.32;4.50;;;;;;;;;;5054888;28;20028;-68
2022/08/20 03:37:32;;;;;;;13.57;4.05;;;;;;;;;;5036937;28;20086;-69
2022/08/20 03:39:58;;;;;;;7.20;3.50;;;;;;;;;;5055344;28;20029;-69
2022/08/20 03:42:24;;;;;;;11.07;4.15;;;;;;;;;;5054735;28;20025;-67
2022/08/20 03:44:52;;;;;;;11.95;3.80;;;;;;;;;;5054658;28;20112;-67
2022/08/20 03:47:18;;;;;;;10.65;4.00;;;;;;;;;;5054594;28;20473;-67
2022/08/20 03:49:44;;;;;;;12.20;4.03;;;;;;;;;;5054864;28;20108;-67
2022/08/20 03:52:10;;;;;;;8.48;4.20;;;;;;;;;;5054531;28;20025;-67
2022/08/20 03:54:36;;;;;;;11.90;3.88;;;;;;;;;;5054803;28;20052;-68
2022/08/20 03:57:02;;;;;;;10.85;4.45;;;;;;;;;;5054704;28;20589;-69
2022/08/20 03:59:31;;;;;;;9.07;3.95;;;;;;;;;;5054644;28;20394;-68
2022/08/20 04:01:58;;;;;;;12.68;5.38;;;;;;;;;;5054327;28;20025;-69
2022/08/20 04:04:25;;;;;;;8.70;3.63;;;;;;;;;;5054873;28;20039;-68
2022/08/20 04:06:51;;;;;;;8.73;3.45;;;;;;;;;;5054776;28;20107;-68
2022/08/20 04:09:17;;;;;;;11.98;4.20;;;;;;;;;;5054208;28;20029;-69
2022/08/20 04:11:43;;;;;;;13.55;3.65;;;;;;;;;;5054040;28;20031;-67
2022/08/20 04:14:10;;;;;;;7.47;3.65;;;;;;;;;;5054112;28;20028;-68
2022/08/20 04:16:36;;;;;;;8.20;3.70;;;;;;;;;;5054578;28;20025;-68
2022/08/20 04:19:03;;;;;;;8.80;3.75;;;;;;;;;;5054582;28;20029;-68
2022/08/20 04:21:31;;;;;;;7.75;3.88;;;;;;;;;;5053994;28;20079;-69
2022/08/20 04:23:57;;;;;;;7.63;3.85;;;;;;;;;;5053967;28;20029;-68
2022/08/20 04:26:24;;;;;;;12.95;3.75;;;;;;;;;;5054355;28;20067;-68
2022/08/20 04:28:51;;;;;;;12.00;3.40;;;;;;;;;;5054448;28;20032;-68
2022/08/20 04:31:18;;;;;;;10.43;3.92;;;;;;;;;;5053890;28;20021;-69
2022/08/20 04:33:44;;;;;;;8.77;3.63;;;;;;;;;;5054343;28;20039;-68
2022/08/20 04:36:10;;;;;;;13.52;4.85;;;;;;;;;;5053977;28;20017;-68
2022/08/20 04:38:36;;;;;;;11.77;5.05;;;;;;;;;;5053691;28;20025;-69
2022/08/20 04:41:02;;;;;;;10.07;4.55;;;;;;;;;;5053654;28;20017;-69
2022/08/20 04:43:32;;;;;;;12.23;5.15;;;;;;;;;;5054155;28;20029;-66
2022/08/20 04:46:00;;;;;;;12.13;5.13;;;;;;;;;;5053903;28;20500;-68
2022/08/20 04:48:27;;;;;;;9.70;4.50;;;;;;;;;;5053508;28;20021;-69
2022/08/20 04:50:54;;;;;;;14.57;5.40;;;;;;;;;;5053772;28;20032;-69
2022/08/20 04:53:22;;;;;;;16.75;5.63;;;;;;;;;;5053981;28;20067;-68
2022/08/20 04:55:48;;;;;;;15.35;6.30;;;;;;;;;;5053734;28;20077;-68
2022/08/20 04:58:17;;;;;;;15.45;5.85;;;;;;;;;;5053656;28;20025;-67
2022/08/20 05:00:54;;;;;;;12.18;5.10;;;;;;;;;;5053384;28;20037;-69
2022/08/20 05:03:20;;;;;;;13.50;5.25;;;;;;;;;;5053645;28;20078;-67
2022/08/20 05:05:46;;;;;;;10.98;5.07;;;;;;;;;;5035443;28;20484;-68
2022/08/20 05:08:13;;;;;;;12.63;5.63;;;;;;;;;;5053161;28;20064;-68
2022/08/20 05:10:40;;;;;;;14.48;5.82;;;;;;;;;;5053500;28;20470;-68
2022/08/20 05:13:06;;;;;;;10.93;5.15;;;;;;;;;;5053153;28;20021;-69
2022/08/20 05:15:33;;;;;;;12.85;5.30;;;;;;;;;;5053132;28;20036;-69
2022/08/20 05:18:00;;;;;;;10.65;4.88;;;;;;;;;;5053175;28;20122;-67
2022/08/20 05:20:31;;;;;;;16.45;5.60;;;;;;;;;;5053123;28;20025;-69
2022/08/20 05:23:01;;;;;;;12.85;5.35;;;;;;;;;;5034452;28;20033;-69
2022/08/20 05:25:29;;;;;;;11.30;4.65;;;;;;;;;;5053395;28;20111;-68
2022/08/20 05:27:56;;;;;;;16.83;4.90;;;;;;;;;;5034838;28;20420;-68
2022/08/20 05:30:22;;;;;;;12.25;5.30;;;;;;;;;;5053005;28;20021;-68
2022/08/20 05:32:48;;;;;;;16.15;5.30;;;;;;;;;;5053527;28;20075;-69
2022/08/20 05:35:14;;;;;;;14.98;4.47;;;;;;;;;;5052990;28;20017;-69
2022/08/20 05:37:40;;;;;;;11.02;4.75;;;;;;;;;;5052999;28;20035;-68
2022/08/20 05:40:10;;;;;;;11.80;4.78;;;;;;;;;;5052938;28;20112;-68
2022/08/20 05:42:36;;;;;;;;;;;;;;;;;;5053321;28;20032;-67
2022/08/20 05:45:03;;;;;;;15.80;5.85;;;;;;;;;;5052934;28;19905;-67
2022/08/20 05:47:30;;;;;;;13.73;5.25;;;;;;;;;;5053389;28;20032;-67
2022/08/20 05:49:56;;;;;;;11.52;5.30;;;;;;;;;;5052841;28;20025;-69
2022/08/20 05:52:22;;;;;;;15.52;5.65;;;;;;;;;;5052844;28;20036;-68
2022/08/20 05:54:48;;;;;;;13.35;5.35;;;;;;;;;;5053273;28;20041;-68
2022/08/20 05:57:21;;;;;;;13.75;4.88;;;;;;;;;;5052851;28;20025;-67
2022/08/20 05:59:47;;;;;;;11.07;5.40;;;;;;;;;;5053132;28;20025;-67
2022/08/20 06:04:58;;;;;;;14.38;5.60;;;;;;;;;;5053291;28;20428;-68
2022/08/20 06:07:24;;;;;;;13.48;5.07;;;;;;;;;;5052619;28;20448;-67
2022/08/20 06:09:51;;;;;;;15.85;5.45;;;;;;;;;;5052674;28;20025;-67
2022/08/20 06:12:17;;;;;;;8.88;4.97;;;;;;;;;;5052930;28;20029;-68
2022/08/20 06:14:46;;;;;;;10.60;4.60;;;;;;;;;;5053196;28;20393;-69
2022/08/20 06:17:13;;;;;;;12.70;4.68;;;;;;;;;;5034755;28;20540;-68
2022/08/20 06:19:40;;;;;;;10.73;4.47;;;;;;;;;;5052588;28;20075;-67
2022/08/20 06:22:06;;;;;;;14.07;4.82;;;;;;;;;;5052565;28;20033;-69
2022/08/20 06:24:32;;;;;;;12.27;5.60;;;;;;;;;;5034644;28;20443;-69
2022/08/20 06:27:00;;;;;;;10.65;4.75;;;;;;;;;;5052685;28;20053;-69
2022/08/20 06:29:26;;;;;;;10.60;4.18;;;;;;;;;;5052510;28;20035;-68
2022/08/20 06:31:53;;;;;;;13.40;4.65;;;;;;;;;;5052494;28;20028;-69
2022/08/20 06:34:19;;;;;;;13.40;4.75;;;;;;;;;;5052730;28;20029;-69
2022/08/20 06:36:45;;;;;;;10.52;4.15;;;;;;;;;;5056295;28;20075;-69
2022/08/20 06:39:14;;;;;;;10.40;3.80;;;;;;;;;;5055941;28;20031;-69
2022/08/20 06:41:40;;;;;;;10.30;4.15;;;;;;;;;;5055945;28;20036;-69
2022/08/20 06:44:07;;;;;;;9.85;4.22;;;;;;;;;;5055855;28;20021;-69
2022/08/20 06:46:34;;;;;;;10.93;4.53;;;;;;;;;;5056024;28;20465;-69
2022/08/20 06:49:00;;;;;;;9.48;4.00;;;;;;;;;;5056050;28;20525;-68
2022/08/20 06:51:26;;;;;;;13.23;4.43;;;;;;;;;;5055983;28;20101;-68
2022/08/20 06:53:52;;;;;;;16.27;5.63;;;;;;;;;;5055922;28;20028;-68
2022/08/20 06:56:18;;;;;;;10.93;4.10;;;;;;;;;;5055703;28;20413;-69
2022/08/20 06:58:44;;;;;;;13.63;4.80;;;;;;;;;;5055570;28;20029;-69
2022/08/20 07:01:12;;;;;;;10.98;4.35;;;;;;;;;;5055768;28;20056;-69
2022/08/20 07:03:39;;;;;;;12.20;4.75;;;;;;;;;;5055795;28;20025;-69
2022/08/20 07:06:07;;;;;;;14.80;4.70;;;;;;;;;;5055457;28;20021;-69
2022/08/20 07:08:34;;;;;;;9.18;4.15;;;;;;;;;;5056048;28;20060;-68
2022/08/20 07:11:00;;;;;;;13.65;5.00;;;;;;;;;;5037464;28;20025;-67
2022/08/20 07:13:27;;;;;;;14.93;4.82;;;;;;;;;;5055808;28;20389;-70
2022/08/20 07:15:53;;;;;;;14.20;4.65;;;;;;;;;;5055335;28;20100;-68
2022/08/20 07:18:20;;;;;;;16.50;5.15;;;;;;;;;;5055519;28;20033;-68
2022/08/20 07:20:46;;;;;;;13.25;4.72;;;;;;;;;;5055189;28;20025;-68
2022/08/20 07:23:12;;;;;;;13.55;4.90;;;;;;;;;;5055386;28;20021;-69
2022/08/20 07:25:40;;;;;;;15.32;4.50;;;;;;;;;;5055118;28;20104;-68
2022/08/20 07:28:07;;;;;;;12.88;4.38;;;;;;;;;;5055266;28;20025;-68
2022/08/20 07:33:38;;;;;;;12.52;3.40;;;;;;;;;;4994153;28;20069;-68
2022/08/20 07:36:04;;;;;;;9.93;3.60;;;;;;;;;;5043210;28;20489;-68
2022/08/20 07:38:31;;;;;;;18.63;4.00;;;;;;;;;;5036895;28;20437;-69
2022/08/20 07:40:58;;;;;;;11.45;3.17;;;;;;;;;;5054778;28;20036;-68
2022/08/20 07:43:24;;;;;;;13.65;3.80;;;;;;;;;;5054730;28;20063;-69
2022/08/20 07:45:53;;;;;;;11.02;3.63;;;;;;;;;;5054469;28;20029;-67
2022/08/20 07:48:19;;;;;;;14.77;3.55;;;;;;;;;;5054569;28;20025;-68
2022/08/20 07:50:45;;;;;;;13.18;3.00;;;;;;;;;;5055130;28;20456;-69
2022/08/20 07:53:11;;;;;;;13.68;3.42;;;;;;;;;;5054566;28;20070;-68
2022/08/20 07:55:38;;;;;;;13.60;3.33;;;;;;;;;;5054932;28;20073;-69
2022/08/20 07:58:14;;;;;;;14.55;4.22;;;;;;;;;;5054785;28;20024;-68
2022/08/20 08:00:41;;;;;;;9.30;3.30;;;;;;;;;;5054328;28;20032;-68
2022/08/20 08:03:08;;;;;;;12.48;3.97;;;;;;;;;;5054949;28;20493;-67
2022/08/20 08:05:35;;;;;;;13.25;3.75;;;;;;;;;;5036493;28;20021;-69
2022/08/20 08:08:01;;;;;;;14.70;3.58;;;;;;;;;;5054197;28;20150;-69
2022/08/20 08:10:27;;;;;;;15.52;3.60;;;;;;;;;;5054511;28;20036;-69
2022/08/20 08:12:55;;;;;;;12.20;3.35;;;;;;;;;;5054225;28;20380;-67
2022/08/20 08:15:24;;;;;;;13.32;3.83;;;;;;;;;;5054142;28;20025;-69
2022/08/20 08:17:51;;;;;;;13.20;3.70;;;;;;;;;;5054414;28;20489;-68
2022/08/20 08:20:18;;;;;;;15.93;3.50;;;;;;;;;;5054015;28;20025;-67
2022/08/20 08:22:45;;;;;;;17.23;4.28;;;;;;;;;;5054281;28;20399;-68
2022/08/20 08:25:11;;;;;;;12.98;3.08;;;;;;;;;;5053953;28;20025;-69
2022/08/20 08:27:37;;;;;;;14.05;3.67;;;;;;;;;;5054141;28;20025;-68
2022/08/20 08:30:04;;;;;;;11.10;3.55;;;;;;;;;;5036027;28;20017;-69
2022/08/20 08:32:31;;;;;;;12.38;3.45;;;;;;;;;;5054338;28;20103;-68
2022/08/20 08:34:57;;;;;;;13.05;3.30;;;;;;;;;;5053857;28;20052;-69
2022/08/20 08:37:23;;;;;;;17.02;3.83;;;;;;;;;;5053739;28;20025;-68
2022/08/20 08:39:49;;;;;;;10.80;2.70;;;;;;;;;;5053691;28;20017;-69
2022/08/20 08:42:26;;;;;;;13.02;3.20;;;;;;;;;;5053668;28;20033;-69
2022/08/20 08:44:53;;;;;;;8.98;2.63;;;;;;;;;;5035523;28;20031;-69
2022/08/20 08:47:26;;;;;;;16.50;3.78;;;;;;;;;;5053798;28;20040;-70
2022/08/20 08:49:52;;;;;;;14.85;3.83;;;;;;;;;;5053862;28;20035;-69
2022/08/20 08:52:21;;;;;;;11.75;2.90;;;;;;;;;;5054045;28;20021;-68
2022/08/20 08:54:47;;;;;;;17.98;3.65;;;;;;;;;;5053272;28;20051;-70
2022/08/20 08:57:15;;;;;;;11.70;3.45;;;;;;;;;;5053695;28;20385;-69
2022/08/20 08:59:41;;;;;;;10.32;2.60;;;;;;;;;;5053425;28;20390;-68
2022/08/20 09:02:07;;;;;;;13.48;2.40;;;;;;;;;;5053233;28;20025;-68
2022/08/20 09:04:38;;;;;;;12.27;3.08;;;;;;;;;;5053310;28;20055;-69
2022/08/20 09:07:06;;;;;;;9.82;2.60;;;;;;;;;;5053746;28;20039;-68
2022/08/20 09:09:34;;;;;;;11.18;2.88;;;;;;;;;;5053539;28;20021;-69
2022/08/20 09:12:07;;;;;;;10.55;3.03;;;;;;;;;;5053237;28;20100;-68
2022/08/20 09:14:33;;;;;;;11.80;2.92;;;;;;;;;;5053491;28;20091;-69
2022/08/20 09:16:59;;;;;;;7.78;2.40;;;;;;;;;;5053395;28;20478;-69
2022/08/20 09:19:25;;;;;;;14.05;2.88;;;;;;;;;;5053168;28;20025;-69
2022/08/20 09:21:51;;;;;;;10.55;2.45;;;;;;;;;;5053668;28;20040;-69
2022/08/20 09:24:17;;;;;;;9.15;2.50;;;;;;;;;;5053083;28;20021;-69
2022/08/20 09:26:43;;;;;;;10.73;2.53;;;;;;;;;;5052993;28;20033;-69
2022/08/20 09:29:09;;;;;;;10.02;2.28;;;;;;;;;;5053327;28;20017;-70
2022/08/20 09:31:35;;;;;;;6.93;2.10;;;;;;;;;;5053286;28;20036;-67
2022/08/20 09:34:01;;;;;;;9.57;2.78;;;;;;;;;;5053212;28;20026;-68
2022/08/20 09:36:27;;;;;;;9.95;2.38;;;;;;;;;;5052796;28;20436;-68
2022/08/20 09:38:54;;;;;;;8.05;2.20;;;;;;;;;;5052462;28;20075;-68
2022/08/20 09:41:20;;;;;;;9.32;2.25;;;;;;;;;;5052581;28;20028;-69
2022/08/20 09:43:46;;;;;;;10.60;2.72;;;;;;;;;;5053117;28;20474;-68
2022/08/20 09:46:13;;;;;;;10.63;2.47;;;;;;;;;;5052959;28;20021;-69
2022/08/20 09:48:39;;;;;;;9.07;2.40;;;;;;;;;;5053153;28;20028;-69
2022/08/20 09:51:05;;;;;;;10.50;2.88;;;;;;;;;;5053092;28;20024;-68
2022/08/20 09:53:31;;;;;;;9.45;2.10;;;;;;;;;;5034874;28;20115;-68
2022/08/20 09:55:59;;;;;;;7.65;2.15;;;;;;;;;;5053097;28;20040;-68
2022/08/20 09:58:57;;;;;;;8.93;2.30;;;;;;;;;;5053082;28;20021;-67
2022/08/20 10:01:23;;;;;;;11.10;2.63;;;;;;;;;;5030148;28;20121;-68
2022/08/20 10:03:49;;;;;;;7.65;2.28;;;;;;;;;;5052843;28;20053;-67
2022/08/20 10:06:19;;;;;;;7.10;2.20;;;;;;;;;;5052557;28;20430;-68
2022/08/20 10:08:45;;;;;;;6.78;1.92;;;;;;;;;;5053982;28;20021;-69
2022/08/20 10:11:11;;;;;;;10.73;2.30;;;;;;;;;;5056471;28;20029;-70
2022/08/20 10:13:37;;;;;;;9.13;2.58;;;;;;;;;;5056419;28;20021;-68
2022/08/20 10:16:05;;;;;;;9.55;5.47;;;;;;;;;;5056582;28;20028;-68
2022/08/20 10:18:31;;;;;;;10.50;2.22;;;;;;;;;;5056689;28;20056;-69
2022/08/20 10:20:57;;;;;;;7.95;2.33;;;;;;;;;;5038388;28;20069;-70
2022/08/20 10:23:23;;;;;;;6.75;1.90;;;;;;;;;;5056057;28;20098;-68
2022/08/20 10:25:49;;;;;;;8.23;2.17;;;;;;;;;;5056238;28;20120;-69
2022/08/20 10:28:15;;;;;;;7.93;2.35;;;;;;;;;;5056159;28;20067;-69
2022/08/20 10:30:41;;;;;;;8.60;2.50;;;;;;;;;;5056161;28;20028;-68
2022/08/20 10:33:07;;;;;;;8.05;2.22;;;;;;;;;;5055891;28;20017;-68
2022/08/20 10:35:33;;;;;;;10.88;2.42;;;;;;;;;;5055751;28;20444;-70
2022/08/20 10:37:59;;;;;;;9.40;2.10;;;;;;;;;;5055779;28;20025;-69
2022/08/20 10:40:25;;;;;;;9.45;2.50;;;;;;;;;;5054848;28;20524;-69
2022/08/20 10:42:51;;;;;;;10.23;2.20;;;;;;;;;;5055029;28;20032;-69
2022/08/20 10:45:17;;;;;;;7.32;1.83;;;;;;;;;;5054994;28;20025;-69
2022/08/20 10:47:43;;;;;;;9.93;2.30;;;;;;;;;;5054932;28;20028;-68
2022/08/20 10:50:11;;;;;;;8.88;1.92;;;;;;;;;;5054913;28;20017;-69
2022/08/20 10:52:37;;;;;;;9.50;2.60;;;;;;;;;;5054981;28;20017;-69
2022/08/20 10:55:04;;;;;;;10.77;2.15;;;;;;;;;;5055418;28;20123;-69
2022/08/20 10:57:32;;;;;;;7.63;2.17;;;;;;;;;;5056043;28;20025;-68
2022/08/20 10:59:58;;;;;;;7.38;1.95;;;;;;;;;;5055963;28;20071;-70
2022/08/20 11:02:25;;;;;;;9.40;2.28;;;;;;;;;;5037694;28;20454;-69
2022/08/20 11:04:51;;;;;;;10.80;2.22;;;;;;;;;;5055462;28;20086;-68
2022/08/20 11:07:17;;;;;;;11.00;2.05;;;;;;;;;;5055348;28;20040;-69
2022/08/20 11:09:44;;;;;;;11.13;2.53;;;;;;;;;;5055636;28;20021;-70
2022/08/20 11:12:10;;;;;;;7.35;2.30;;;;;;;;;;5037513;28;20469;-71
2022/08/20 11:14:36;;;;;;;7.97;2.25;;;;;;;;;;5055305;28;20388;-67
2022/08/20 11:17:03;;;;;;;6.43;2.03;;;;;;;;;;5055213;28;20099;-69
2022/08/20 11:19:29;;;;;;;8.15;1.88;;;;;;;;;;5055188;28;20516;-68
2022/08/20 11:21:55;;;;;;;6.95;1.90;;;;;;;;;;5054355;28;20028;-68
2022/08/20 11:24:21;;;;;;;8.15;2.35;;;;;;;;;;5055153;28;20032;-70
2022/08/20 11:26:47;;;;;;;7.85;2.22;;;;;;;;;;5037111;28;20025;-69
2022/08/20 11:29:14;;;;;;;8.27;2.13;;;;;;;;;;5055327;28;20423;-70
2022/08/20 11:31:40;;;;;;;10.45;2.33;;;;;;;;;;5054976;28;20021;-68
2022/08/20 11:34:06;;;;;;;9.23;2.35;;;;;;;;;;5054971;28;20035;-69
2022/08/20 11:36:33;;;;;;;6.90;2.10;;;;;;;;;;5055156;28;20017;-69
2022/08/20 11:38:59;;;;;;;7.88;2.00;;;;;;;;;;5054923;28;20527;-69
2022/08/20 11:41:25;;;;;;;6.72;2.08;;;;;;;;;;5054774;28;20021;-69
2022/08/20 11:43:51;;;;;;;7.68;1.85;;;;;;;;;;5036938;28;20021;-69
2022/08/20 11:46:17;;;;;;;8.02;2.35;;;;;;;;;;5054889;28;20075;-68
2022/08/20 11:48:43;;;;;;;8.40;2.10;;;;;;;;;;5036506;28;20432;-70
2022/08/20 11:51:09;;;;;;;8.70;2.35;;;;;;;;;;5054493;28;20078;-70
2022/08/20 11:53:35;;;;;;;9.25;2.10;;;;;;;;;;5054869;28;20029;-70
2022/08/20 11:56:02;;;;;;;10.20;2.53;;;;;;;;;;5054717;28;20120;-68
2022/08/20 11:58:28;;;;;;;8.60;2.50;;;;;;;;;;5054422;28;20032;-68
2022/08/20 12:00:54;;;;;;;9.77;2.20;;;;;;;;;;5054942;28;20025;-68
2022/08/20 12:03:20;;;;;;;9.75;2.28;;;;;;;;;;5054686;28;20078;-68
2022/08/20 12:05:46;;;;;;;9.98;2.50;;;;;;;;;;5054663;28;20035;-67
2022/08/20 12:08:13;;;;;;;7.63;1.85;;;;;;;;;;5054549;28;20111;-68
2022/08/20 12:10:39;;;;;;;6.10;1.90;;;;;;;;;;5054269;28;20021;-69
2022/08/20 12:13:06;;;;;;;11.30;2.33;;;;;;;;;;5054253;28;20151;-69
2022/08/20 12:15:33;;;;;;;7.78;2.20;;;;;;;;;;5054205;28;20025;-70
2022/08/20 12:18:00;;;;;;;8.65;2.00;;;;;;;;;;5054442;28;20493;-69
2022/08/20 12:20:26;;;;;;;8.18;2.15;;;;;;;;;;5054072;28;20025;-69
2022/08/20 12:22:52;;;;;;;4.80;1.92;;;;;;;;;;5053997;28;20055;-68
2022/08/20 12:25:19;;;;;;;11.13;2.45;;;;;;;;;;5054265;28;20033;-67
2022/08/20 12:27:46;;;;;;;6.65;1.90;;;;;;;;;;5053876;28;20429;-69
2022/08/20 12:30:13;;;;;;;7.60;2.15;;;;;;;;;;5053864;28;20024;-69
2022/08/20 12:32:41;;;;;;;5.90;1.95;;;;;;;;;;5053708;28;20370;-69
2022/08/20 12:35:08;;;;;;;7.90;2.38;;;;;;;;;;5053793;28;20477;-69
2022/08/20 12:37:34;;;;;;;16.42;2.83;;;;;;;;;;5053754;28;20566;-68
2022/08/20 12:40:02;;;;;;;7.25;2.38;;;;;;;;;;5053648;28;20025;-67
2022/08/20 12:42:29;;;;;;;8.02;2.17;;;;;;;;;;5053660;28;20036;-69
2022/08/20 12:44:55;;;;;;;11.25;2.58;;;;;;;;;;5053938;28;20029;-69
2022/08/20 12:47:26;;;;;;;6.75;2.25;;;;;;;;;;5053476;28;20029;-70
2022/08/20 12:49:57;;;;;;;5.95;1.88;;;;;;;;;;5035679;28;20028;-68
2022/08/20 12:52:24;;;;;;;7.40;1.80;;;;;;;;;;5053515;28;20489;-68
2022/08/20 12:54:50;;;;;;;7.55;2.55;;;;;;;;;;5053293;28;20076;-69
2022/08/20 12:57:27;;;;;;;6.55;1.73;;;;;;;;;;5053945;28;20043;-70
2022/08/20 12:59:54;;;;;;;4.93;2.08;;;;;;;;;;5053400;28;20367;-69
2022/08/20 13:02:20;;;;;;;7.55;2.40;;;;;;;;;;5053280;28;20037;-70
2022/08/20 13:04:46;;;;;;;5.60;1.95;;;;;;;;;;5053306;28;20112;-69
2022/08/20 13:07:12;;;;;;;7.25;2.13;;;;;;;;;;5035311;28;20036;-69
2022/08/20 13:09:39;;;;;;;10.77;1.95;;;;;;;;;;5053317;28;20105;-69
2022/08/20 13:12:05;;;;;;;6.28;2.20;;;;;;;;;;5053248;28;20021;-69
2022/08/20 13:14:31;;;;;;;6.35;2.10;;;;;;;;;;5053494;28;20017;-69
2022/08/20 13:16:58;;;;;;;8.77;2.70;;;;;;;;;;5053452;28;20086;-68
2022/08/20 13:19:25;;;;;;;6.25;2.08;;;;;;;;;;5053455;28;20025;-68
2022/08/20 13:21:51;;;;;;;5.45;1.63;;;;;;;;;;5053135;28;20095;-68
2022/08/20 13:24:17;;;;;;;7.45;1.88;;;;;;;;;;5053095;28;20036;-69
2022/08/20 13:26:43;;;;;;;10.30;2.40;;;;;;;;;;5052964;28;20050;-68
2022/08/20 13:29:09;;;;;;;8.20;1.90;;;;;;;;;;5053104;28;20074;-69
2022/08/20 13:31:35;;;;;;;7.35;2.05;;;;;;;;;;5053327;28;20017;-69
2022/08/20 13:34:01;;;;;;;8.75;2.63;;;;;;;;;;5052965;28;20539;-69
2022/08/20 13:36:27;;;;;;;9.32;2.20;;;;;;;;;;5052996;28;20048;-68
2022/08/20 13:38:53;;;;;;;6.05;1.98;;;;;;;;;;5052984;28;20386;-70
2022/08/20 13:41:20;;;;;;;5.90;2.20;;;;;;;;;;5052914;28;20033;-67
2022/08/20 13:43:45;;;;;;;6.30;2.35;;;;;;;;;;5054296;28;20451;-70
2022/08/20 13:46:12;;;;;;;8.55;2.25;;;;;;;;;;5057054;28;20155;-69
2022/08/20 13:48:38;;;;;;;8.13;2.63;;;;;;;;;;5056912;28;20388;-69
2022/08/20 13:51:04;;;;;;;7.35;2.13;;;;;;;;;;5057180;28;20480;-69
2022/08/20 13:53:30;;;;;;;7.35;2.13;;;;;;;;;;5056877;28;20021;-71
2022/08/20 13:55:56;;;;;;;6.40;2.00;;;;;;;;;;5057283;28;20052;-68
2022/08/20 13:58:22;;;;;;;8.70;2.28;;;;;;;;;;5057307;28;20104;-69
2022/08/20 14:00:48;;;;;;;5.63;1.83;;;;;;;;;;5056818;28;20116;-69
2022/08/20 14:03:14;;;;;;;6.40;2.28;;;;;;;;;;5056944;28;20029;-69
2022/08/20 14:05:41;;;;;;;6.90;2.35;;;;;;;;;;5056643;28;20035;-69
2022/08/20 14:08:08;;;;;;;9.48;2.00;;;;;;;;;;5057089;28;20033;-69
2022/08/20 14:10:34;;;;;;;10.50;2.83;;;;;;;;;;5056542;28;20391;-68
2022/08/20 14:13:02;;;;;;;4.45;1.90;;;;;;;;;;5056830;28;20021;-69
2022/08/20 14:15:28;;;;;;;11.52;2.67;;;;;;;;;;5056519;28;20096;-69
2022/08/20 14:17:55;;;;;;;7.00;2.28;;;;;;;;;;5056998;28;20028;-69
2022/08/20 14:20:22;;;;;;;7.80;2.30;;;;;;;;;;5056412;28;20059;-69
2022/08/20 14:22:48;;;;;;;6.07;2.13;;;;;;;;;;5056357;28;20067;-69
2022/08/20 14:25:16;;;;;;;6.45;1.98;;;;;;;;;;5056611;28;20390;-70
2022/08/20 14:27:42;;;;;;;5.25;1.98;;;;;;;;;;5056167;28;20024;-70
2022/08/20 14:30:10;;;;;;;7.38;2.03;;;;;;;;;;5056179;28;20520;-70
2022/08/20 14:32:36;;;;;;;8.63;2.10;;;;;;;;;;5056159;28;20070;-70
2022/08/20 14:35:02;;;;;;;4.30;1.92;;;;;;;;;;5056355;28;20021;-68
2022/08/20 14:37:33;;;;;;;7.47;1.92;;;;;;;;;;5056312;28;20108;-68
2022/08/20 14:40:00;;;;;;;7.70;2.13;;;;;;;;;;5038170;28;20028;-68